Time;durP1;ratioP1;P1;durP2;ratioP2;P2;SDS_P1;SDS_P2;PMS_P1;PMS_P2;Temp;Humidity;BMP_temperature;BMP_pressure;BME280_temperature;BME280_humidity;BME280_pressure;Samples;Min_cycle;Max_cycle;Signal;HPM_P1;HPM_P2
2023/01/17 00:02:22;;;;;;;28.00;9.73;;;;;;;-2.59;70.52;101507.75;1883675;74;21149;-48
2023/01/17 00:10:26;;;;;;;8.00;4.22;;;;;;;-2.68;70.89;101505.34;1875390;75;21437;-57
2023/01/17 00:12:58;;;;;;;18.62;6.90;;;;;;;-2.66;71.29;101506.25;1876300;76;21532;-58
2023/01/17 00:15:28;;;;;;;21.12;8.18;;;;;;;-2.65;71.22;101506.73;1876913;75;21579;-55
2023/01/17 00:17:58;;;;;;;19.67;8.20;;;;;;;-2.64;70.99;101505.88;1867966;75;21129;-57
2023/01/17 00:26:07;;;;;;;11.10;4.85;;;;;;;-2.69;71.03;101499.32;1895185;75;21069;-59
2023/01/17 01:33:47;;;;;;;24.20;9.90;;;;;;;-2.62;72.19;101484.87;1885704;76;21042;-59
2023/01/17 01:36:15;;;;;;;18.32;8.58;;;;;;;-2.63;72.28;101490.87;1887247;76;21129;-58
2023/01/17 01:38:44;;;;;;;13.13;6.65;;;;;;;-2.67;72.49;101483.87;1884068;75;21046;-62
2023/01/17 01:41:13;;;;;;;23.22;8.45;;;;;;;-2.70;72.83;101482.52;1875865;76;21477;-59
2023/01/17 01:43:48;;;;;;;18.30;8.58;;;;;;;-2.73;73.45;101475.16;1859368;75;21155;-58
2023/01/17 01:46:25;;;;;;;4.58;2.92;;;;;;;-2.73;73.19;101479.03;1863972;76;21167;-57
2023/01/17 01:49:00;;;;;;;12.78;7.05;;;;;;;-2.73;72.88;101475.16;1887461;76;21058;-56
2023/01/17 01:51:35;;;;;;;21.07;7.87;;;;;;;-2.69;72.59;101484.25;1887599;76;21533;-58
2023/01/17 01:54:07;;;;;;;19.77;8.83;;;;;;;-2.69;72.40;101485.14;1884136;76;21117;-51
2023/01/17 01:56:37;;;;;;;16.40;6.70;;;;;;;-2.66;72.67;101486.92;1887588;75;21547;-59
2023/01/17 01:59:08;;;;;;;29.77;11.55;;;;;;;-2.65;72.68;101482.23;1870483;76;21564;-58
2023/01/17 02:01:37;;;;;;;18.77;7.20;;;;;;;-2.67;72.67;101486.05;1867971;76;21187;-58
2023/01/17 02:04:09;;;;;;;20.43;11.48;;;;;;;-2.68;72.84;101490.73;1887540;76;21014;-56
2023/01/17 02:06:43;;;;;;;28.67;9.38;;;;;;;-2.70;72.93;101486.38;1887498;76;21038;-51
2023/01/17 02:09:14;;;;;;;21.35;9.30;;;;;;;-2.72;72.80;101485.91;1887496;76;21131;-59
2023/01/17 02:11:45;;;;;;;21.05;7.80;;;;;;;-2.73;72.67;101485.86;1887425;76;21492;-57
2023/01/17 02:14:18;;;;;;;26.23;8.83;;;;;;;-2.74;72.47;101486.29;1887479;76;21155;-56
2023/01/17 02:16:52;;;;;;;17.25;8.48;;;;;;;-2.77;72.59;101486.20;1888551;75;21014;-57
2023/01/17 02:19:36;;;;;;;23.30;10.25;;;;;;;-2.74;72.43;101488.00;1872847;75;21043;-56
2023/01/17 02:22:39;;;;;;;22.48;10.03;;;;;;;-2.73;72.30;101489.34;1886678;76;21541;-54
2023/01/17 02:25:17;;;;;;;18.95;8.18;;;;;;;-2.72;72.16;101487.20;1855650;77;21045;-50
2023/01/17 02:27:57;;;;;;;13.80;7.85;;;;;;;-2.73;71.96;101479.03;1855825;77;21113;-59
2023/01/17 02:30:35;;;;;;;17.70;8.38;;;;;;;-2.74;71.85;101483.71;1853769;77;21187;-58
2023/01/17 02:33:13;;;;;;;17.02;8.48;;;;;;;-2.75;71.87;101483.27;1888408;75;21218;-59
2023/01/17 02:36:10;;;;;;;16.30;7.80;;;;;;;-2.71;71.98;101484.23;1869241;76;21062;-57
2023/01/17 02:38:41;;;;;;;25.08;11.90;;;;;;;-2.70;71.94;101476.94;1855187;76;21563;-58
2023/01/17 02:41:28;;;;;;;25.60;10.35;;;;;;;-2.67;71.84;101471.88;1855019;77;21587;-61
2023/01/17 02:43:56;;;;;;;14.63;5.40;;;;;;;-2.65;71.87;101470.63;1854148;77;22253;-57
2023/01/17 02:46:25;;;;;;;13.85;6.00;;;;;;;-2.64;71.72;101466.78;1855596;77;21065;-58
2023/01/17 02:48:56;;;;;;;11.90;6.47;;;;;;;-2.62;71.63;101464.25;1855439;77;21081;-60
2023/01/17 02:51:37;;;;;;;17.00;8.83;;;;;;;-2.63;71.66;101454.78;1915707;74;21101;-58
2023/01/17 02:54:32;;;;;;;14.63;6.85;;;;;;;-2.63;71.52;101461.23;1891086;74;21286;-55
2023/01/17 02:57:26;;;;;;;25.57;10.43;;;;;;;-2.63;71.39;101457.36;1886895;76;21638;-59
2023/01/17 03:00:08;;;;;;;;;;;;;;;-2.63;71.22;101458.66;1889396;76;22345;-59
2023/01/17 03:02:45;;;;;;;18.55;8.55;;;;;;;-2.68;71.24;101456.36;1885768;74;20104;-61
2023/01/17 03:05:25;;;;;;;22.22;8.28;;;;;;;-2.71;71.34;101470.05;1840402;76;21121;-61
2023/01/17 03:07:56;;;;;;;28.67;10.93;;;;;;;-2.72;71.28;101467.87;1878623;76;21137;-62
2023/01/17 03:10:25;;;;;;;18.70;9.75;;;;;;;-2.73;71.30;101457.12;1855374;77;21053;-58
2023/01/17 03:12:56;;;;;;;21.55;9.75;;;;;;;-2.74;71.39;101460.52;1855221;77;21124;-56
2023/01/17 03:15:25;;;;;;;24.40;10.10;;;;;;;-2.75;71.46;101464.33;1878923;76;21055;-56
2023/01/17 03:17:56;;;;;;;22.05;7.60;;;;;;;-2.77;71.51;101468.16;1885053;76;21064;-55
2023/01/17 03:20:26;;;;;;;6.35;4.78;;;;;;;-2.77;71.46;101459.12;1887273;75;21077;-55
2023/01/17 03:22:54;;;;;;;6.12;5.37;;;;;;;-2.77;71.52;101468.58;1887622;76;21552;-57
2023/01/17 03:25:23;;;;;;;15.50;8.80;;;;;;;-2.81;71.66;101470.20;1887404;76;21054;-50
2023/01/17 03:27:51;;;;;;;23.90;10.78;;;;;;;-2.80;71.65;101483.98;1880235;76;21117;-48
2023/01/17 03:30:21;;;;;;;21.62;8.63;;;;;;;-2.84;71.73;101480.84;1856599;77;21235;-56
2023/01/17 03:32:50;;;;;;;17.62;7.75;;;;;;;-2.83;71.67;101483.88;1864471;77;21132;-55
2023/01/17 03:35:19;;;;;;;18.15;8.05;;;;;;;-2.79;71.54;101479.27;1864562;77;21480;-53
2023/01/17 03:37:47;;;;;;;23.52;8.80;;;;;;;-2.76;71.53;101481.94;1864536;77;21041;-48
2023/01/17 03:40:16;;;;;;;23.00;10.63;;;;;;;-2.72;71.45;101482.05;1896884;74;21062;-57
2023/01/17 03:42:45;;;;;;;21.97;8.83;;;;;;;-2.69;71.28;101477.80;1896734;75;21050;-54
2023/01/17 03:45:15;;;;;;;22.02;7.33;;;;;;;-2.70;71.24;101483.81;1896429;75;21457;-57
2023/01/17 03:47:43;;;;;;;24.63;10.05;;;;;;;-2.71;71.31;101481.66;1896747;75;21449;-57
2023/01/17 03:50:12;;;;;;;28.70;10.43;;;;;;;-2.73;71.38;101480.31;1894403;75;21121;-57
2023/01/17 03:52:41;;;;;;;25.15;12.03;;;;;;;-2.72;71.40;101484.63;1896730;75;21534;-57
2023/01/17 03:55:10;;;;;;;34.13;14.93;;;;;;;-2.68;71.41;101482.14;1896702;75;21162;-56
2023/01/17 03:57:39;;;;;;;28.85;15.55;;;;;;;-2.65;71.38;101488.25;1896834;75;21112;-59
2023/01/17 04:00:09;;;;;;;28.05;14.38;;;;;;;-2.61;71.34;101489.21;1894366;75;21128;-59
2023/01/17 04:02:38;;;;;;;27.10;12.47;;;;;;;-2.56;71.29;101490.22;1895178;75;21097;-58
2023/01/17 04:05:07;;;;;;;39.30;15.28;;;;;;;-2.55;71.25;101482.49;1894953;76;21612;-57
2023/01/17 04:07:35;;;;;;;25.10;7.45;;;;;;;-2.46;71.26;101488.74;1894782;76;21540;-56
2023/01/17 04:10:05;;;;;;;29.18;11.63;;;;;;;-2.42;71.14;101478.53;1891987;74;21062;-54
2023/01/17 04:12:34;;;;;;;25.75;10.05;;;;;;;-2.41;71.43;101489.32;1929652;74;21047;-57
2023/01/17 04:15:02;;;;;;;7.97;4.83;;;;;;;-2.44;71.54;101485.36;1883685;74;21038;-56
2023/01/17 04:17:31;;;;;;;24.05;10.10;;;;;;;-2.44;71.50;101492.23;1864573;77;21105;-52
2023/01/17 04:20:00;;;;;;;29.32;11.55;;;;;;;-2.42;71.46;101491.42;1864517;77;21053;-49
2023/01/17 04:22:30;;;;;;;26.17;11.00;;;;;;;-2.39;71.77;101495.39;1912118;74;21041;-55
2023/01/17 04:24:59;;;;;;;21.23;10.08;;;;;;;-2.36;72.11;101490.71;1929600;74;21038;-56
2023/01/17 04:27:30;;;;;;;19.27;9.30;;;;;;;-2.39;72.09;101493.23;1929775;74;21509;-55
2023/01/17 04:29:58;;;;;;;25.17;11.00;;;;;;;-2.39;72.09;101490.23;1897781;74;21131;-57
2023/01/17 04:32:28;;;;;;;25.40;9.25;;;;;;;-2.39;72.03;101486.36;1884032;75;21086;-56
2023/01/17 04:34:57;;;;;;;18.10;9.08;;;;;;;-2.42;72.26;101494.00;1878659;76;21127;-57
2023/01/17 04:37:26;;;;;;;31.62;10.80;;;;;;;-2.41;72.43;101491.90;1878520;76;21494;-59
2023/01/17 04:39:55;;;;;;;20.12;8.83;;;;;;;-2.33;72.55;101489.09;1876294;76;21179;-59
2023/01/17 04:42:23;;;;;;;34.75;12.75;;;;;;;-2.22;72.71;101488.50;1877799;76;21046;-58
2023/01/17 04:44:52;;;;;;;13.80;6.00;;;;;;;-2.09;73.55;101489.25;1847271;78;21109;-58
2023/01/17 04:47:20;;;;;;;28.45;12.33;;;;;;;-1.96;73.68;101495.59;1847319;78;21127;-58
2023/01/17 04:49:49;;;;;;;15.55;7.40;;;;;;;-1.86;73.76;101495.39;1849247;76;21205;-58
2023/01/17 04:52:19;;;;;;;10.82;5.80;;;;;;;-1.78;73.91;101493.88;1847229;78;21127;-57
2023/01/17 04:54:48;;;;;;;18.50;8.18;;;;;;;-1.71;73.80;101493.19;1847218;78;21510;-58
2023/01/17 04:57:20;;;;;;;15.35;6.62;;;;;;;-1.64;73.76;101491.60;1847225;78;21052;-59
2023/01/17 04:59:49;;;;;;;14.18;6.95;;;;;;;-1.58;73.66;101495.64;1849370;76;21072;-59
2023/01/17 05:02:17;;;;;;;15.05;7.22;;;;;;;-1.48;73.71;101490.25;1868111;76;21122;-60
2023/01/17 05:04:46;;;;;;;28.00;9.88;;;;;;;-1.42;73.48;101495.15;1878504;76;21227;-59
2023/01/17 05:07:14;;;;;;;27.90;10.98;;;;;;;-1.37;73.31;101501.69;1878524;76;21187;-59
2023/01/17 05:09:43;;;;;;;30.70;11.10;;;;;;;-1.33;73.16;101498.33;1878568;76;21531;-58
2023/01/17 05:12:12;;;;;;;33.78;12.82;;;;;;;-1.30;73.10;101503.58;1849456;76;21200;-58
2023/01/17 05:14:40;;;;;;;23.27;10.82;;;;;;;-1.26;73.03;101504.52;1847288;76;21175;-59
2023/01/17 05:17:10;;;;;;;24.82;11.03;;;;;;;-1.20;73.01;101502.95;1847158;78;21087;-59
2023/01/17 05:19:38;;;;;;;28.70;11.63;;;;;;;-1.08;72.95;101513.09;1847219;78;21539;-59
2023/01/17 05:22:13;;;;;;;34.27;11.90;;;;;;;-0.94;72.97;101504.31;1869640;76;21202;-59
2023/01/17 05:24:37;;;;;;;34.03;14.38;;;;;;;-0.75;73.02;101510.75;1877606;76;21046;-58
2023/01/17 05:27:06;;;;;;;40.48;13.88;;;;;;;-0.58;73.07;101511.93;1878554;76;21109;-57
2023/01/17 05:29:34;;;;;;;25.65;11.03;;;;;;;-0.38;73.18;101511.45;1878439;76;21018;-58
2023/01/17 05:32:03;;;;;;;34.35;14.47;;;;;;;-0.15;73.26;101507.52;1878220;76;21195;-57
2023/01/17 05:34:35;;;;;;;26.37;13.40;;;;;;;0.09;73.07;101514.86;1887383;76;21109;-58
2023/01/17 05:37:04;;;;;;;31.00;12.68;;;;;;;0.41;72.93;101513.19;1887493;76;21554;-55
2023/01/17 05:39:32;;;;;;;24.72;12.50;;;;;;;0.78;72.79;101512.86;1887511;76;21548;-56
2023/01/17 05:42:01;;;;;;;26.23;12.70;;;;;;;1.18;72.56;101511.64;1886857;76;21561;-57
2023/01/17 05:44:30;;;;;;;73.25;25.68;;;;;;;1.47;72.29;101509.36;1887478;76;21098;-57
2023/01/17 05:46:58;;;;;;;51.53;16.65;;;;;;;1.82;72.10;101512.73;1887444;76;21043;-58
2023/01/17 05:49:27;;;;;;;35.20;11.90;;;;;;;2.26;71.48;101513.55;1887493;76;21149;-58
2023/01/17 05:51:56;;;;;;;39.58;13.45;;;;;;;2.67;70.60;101503.88;1887305;76;21132;-59
2023/01/17 05:54:25;;;;;;;23.90;12.07;;;;;;;2.90;69.84;101505.28;1887871;75;21490;-59
2023/01/17 05:56:54;;;;;;;29.52;11.18;;;;;;;3.09;69.29;101506.22;1887381;76;21242;-58
2023/01/17 05:59:22;;;;;;;24.82;12.10;;;;;;;3.25;68.92;101512.81;1887502;76;21160;-57
2023/01/17 06:01:53;;;;;;;30.27;13.25;;;;;;;3.59;68.52;101509.84;1888381;75;21136;-59
2023/01/17 06:04:21;;;;;;;32.40;13.88;;;;;;;4.23;68.18;101502.52;1887412;76;21054;-59
2023/01/17 06:06:50;;;;;;;33.28;14.25;;;;;;;4.94;67.87;101505.41;1887422;76;21121;-59
2023/01/17 06:09:19;;;;;;;35.80;15.75;;;;;;;5.70;66.97;101500.27;1888295;75;21282;-59
2023/01/17 06:11:47;;;;;;;26.55;13.78;;;;;;;6.34;66.43;101501.53;1885139;76;21062;-58
2023/01/17 06:14:16;;;;;;;36.00;15.88;;;;;;;6.80;65.87;101500.62;1885119;76;21603;-57
2023/01/17 06:16:50;;;;;;;35.28;14.13;;;;;;;7.21;65.70;101498.83;1873681;76;21058;-58
2023/01/17 06:19:15;;;;;;;31.42;14.15;;;;;;;7.66;64.56;101501.68;1887004;75;21132;-58
2023/01/17 06:21:46;;;;;;;25.72;13.22;;;;;;;8.02;64.22;101500.70;1887228;76;21050;-59
2023/01/17 06:24:26;;;;;;;25.97;13.65;;;;;;;8.41;63.52;101498.29;1887390;75;21042;-59
2023/01/17 06:26:51;;;;;;;31.42;14.07;;;;;;;8.69;62.56;101507.00;1885075;75;21054;-59
2023/01/17 06:29:22;;;;;;;33.08;13.85;;;;;;;9.08;61.25;101504.48;1886852;75;21101;-59
2023/01/17 06:31:50;;;;;;;35.78;13.20;;;;;;;9.06;60.37;101501.87;1887321;76;21042;-60
2023/01/17 06:34:19;;;;;;;31.97;14.93;;;;;;;9.18;60.19;101493.31;1887408;76;21141;-59
2023/01/17 06:36:47;;;;;;;26.82;13.55;;;;;;;9.39;59.95;101494.64;1884958;76;21058;-59
2023/01/17 06:39:18;;;;;;;38.67;13.65;;;;;;;9.43;59.65;101493.66;1886861;75;21129;-59
2023/01/17 06:41:46;;;;;;;27.05;12.95;;;;;;;9.60;59.50;101491.97;1887342;76;21477;-59
2023/01/17 06:44:15;;;;;;;33.05;12.93;;;;;;;9.93;58.93;101487.67;1887286;76;21093;-59
2023/01/17 06:46:47;;;;;;;29.48;14.13;;;;;;;9.84;58.57;101483.48;1886761;75;21206;-59
2023/01/17 06:49:17;;;;;;;30.00;14.18;;;;;;;9.94;58.25;101483.27;1886095;75;21102;-59
2023/01/17 06:51:46;;;;;;;29.95;14.55;;;;;;;10.34;57.39;101473.94;1884777;76;21034;-60
2023/01/17 06:54:15;;;;;;;31.77;14.85;;;;;;;10.80;56.98;101478.41;1890240;75;21035;-59
2023/01/17 06:56:44;;;;;;;33.08;15.00;;;;;;;11.26;56.21;101464.35;1885036;76;21102;-59
2023/01/17 06:59:12;;;;;;;45.25;15.63;;;;;;;11.84;55.52;101470.44;1901806;75;21030;-60
2023/01/17 07:01:41;;;;;;;37.80;16.05;;;;;;;12.34;55.32;101468.36;1906496;75;21053;-58
2023/01/17 07:04:11;;;;;;;33.98;15.95;;;;;;;12.91;54.44;101466.30;1875292;75;21161;-59
2023/01/17 07:06:39;;;;;;;31.15;14.87;;;;;;;13.37;53.65;101459.31;1876236;76;21028;-59
2023/01/17 07:09:10;;;;;;;36.85;14.18;;;;;;;13.89;52.96;101463.81;1882455;76;21220;-59
2023/01/17 07:11:38;;;;;;;24.75;11.75;;;;;;;14.25;52.37;101459.20;1882066;76;21044;-59
2023/01/17 07:14:13;;;;;;;24.20;12.25;;;;;;;14.59;51.53;101463.08;1882912;75;21033;-59
2023/01/17 07:16:54;;;;;;;30.88;12.98;;;;;;;15.03;50.42;101459.33;1887411;76;21145;-59
2023/01/17 07:19:19;;;;;;;23.07;11.65;;;;;;;15.17;49.60;101456.05;1882353;76;21047;-59
2023/01/17 07:21:46;;;;;;;24.82;11.33;;;;;;;15.37;48.79;101449.33;1885289;76;21085;-58
2023/01/17 07:24:19;;;;;;;25.02;11.18;;;;;;;15.42;48.23;101451.30;1886768;76;21129;-59
2023/01/17 07:26:50;;;;;;;32.85;13.32;;;;;;;15.18;48.24;101462.61;1886605;76;21132;-59
2023/01/17 07:29:19;;;;;;;25.55;14.50;;;;;;;15.21;47.74;101454.96;1887458;76;21104;-59
2023/01/17 07:31:49;;;;;;;22.48;10.80;;;;;;;15.26;47.26;101451.63;1887317;76;21050;-59
2023/01/17 07:34:23;;;;;;;23.32;12.10;;;;;;;15.03;47.12;101457.56;1881235;75;21607;-59
2023/01/17 07:36:57;;;;;;;24.00;11.57;;;;;;;14.74;47.19;101444.78;1845140;78;21242;-60
2023/01/17 07:39:24;;;;;;;28.67;12.25;;;;;;;14.75;47.41;101446.48;1846006;78;21121;-60
2023/01/17 07:41:54;;;;;;;26.87;11.45;;;;;;;14.87;46.97;101443.28;1859870;76;21124;-57
2023/01/17 07:44:28;;;;;;;20.48;10.55;;;;;;;15.16;46.37;101441.05;1849823;76;21501;-57
2023/01/17 07:46:59;;;;;;;23.38;11.48;;;;;;;15.63;45.72;101449.86;1852007;76;21577;-58
2023/01/17 07:49:26;;;;;;;23.20;11.88;;;;;;;15.97;45.21;101462.38;1846136;77;21887;-61
2023/01/17 07:51:59;;;;;;;27.65;12.13;;;;;;;16.42;44.57;101461.42;1847248;78;21135;-61
2023/01/17 07:54:27;;;;;;;23.27;10.82;;;;;;;16.80;43.81;101453.19;1842801;78;21118;-57
2023/01/17 07:56:56;;;;;;;27.15;11.45;;;;;;;16.84;43.31;101452.59;1849177;76;21181;-52
2023/01/17 07:59:25;;;;;;;26.55;11.50;;;;;;;16.77;42.87;101441.41;1847049;78;21052;-56
2023/01/17 08:01:55;;;;;;;23.85;11.35;;;;;;;16.83;42.56;101449.56;1852858;76;21129;-54
2023/01/17 08:04:33;;;;;;;22.77;10.72;;;;;;;17.09;42.23;101448.13;1847455;76;21015;-48
2023/01/17 08:06:59;;;;;;;23.32;11.53;;;;;;;17.51;41.86;101444.02;1846665;78;21079;-54
2023/01/17 08:09:28;;;;;;;25.48;12.50;;;;;;;17.87;41.58;101444.19;1847233;78;21011;-46
2023/01/17 08:11:57;;;;;;;29.92;13.50;;;;;;;18.17;41.02;101442.86;1852628;76;21247;-48
2023/01/17 08:14:26;;;;;;;62.33;28.85;;;;;;;18.39;40.70;101448.21;1878251;76;21110;-47
2023/01/17 08:16:57;;;;;;;48.33;20.40;;;;;;;17.95;41.13;101447.27;1878487;76;21047;-47
2023/01/17 08:19:25;;;;;;;36.42;14.03;;;;;;;18.28;40.85;101442.22;1871505;76;21113;-51
2023/01/17 08:21:55;;;;;;;28.52;12.00;;;;;;;18.67;39.99;101432.73;1876860;76;21110;-50
2023/01/17 08:24:23;;;;;;;28.75;10.90;;;;;;;19.07;39.42;101431.11;1878334;76;21670;-49
2023/01/17 08:26:57;;;;;;;19.82;7.47;;;;;;;19.53;38.74;101432.61;1858621;76;21026;-58
2023/01/17 08:29:23;;;;;;;30.15;10.35;;;;;;;20.06;38.14;101428.65;1877940;76;21054;-56
2023/01/17 08:31:52;;;;;;;17.90;8.75;;;;;;;20.43;37.96;101430.97;1868955;76;21101;-56
2023/01/17 08:34:21;;;;;;;25.23;9.30;;;;;;;20.66;37.28;101423.20;1866823;75;21533;-57
2023/01/17 08:36:53;;;;;;;25.62;10.18;;;;;;;20.86;37.08;101424.92;1880049;75;21560;-56
2023/01/17 08:39:22;;;;;;;22.20;9.28;;;;;;;21.12;36.36;101413.20;1883323;76;21682;-57
2023/01/17 08:41:51;;;;;;;18.77;7.92;;;;;;;21.32;36.06;101410.87;1884389;76;21512;-57
2023/01/17 08:44:19;;;;;;;20.65;7.00;;;;;;;21.66;35.47;101413.77;1862166;76;21142;-57
2023/01/17 08:46:48;;;;;;;12.53;6.28;;;;;;;21.91;34.76;101414.08;1852683;77;21059;-57
2023/01/17 08:49:17;;;;;;;9.90;4.28;;;;;;;21.50;33.13;101412.20;1852626;77;21189;-58
2023/01/17 08:51:45;;;;;;;8.63;3.75;;;;;;;20.82;31.04;101414.92;1852420;77;21102;-57
2023/01/17 08:54:14;;;;;;;11.73;4.67;;;;;;;20.29;31.40;101408.37;1852538;77;21134;-56
2023/01/17 08:56:42;;;;;;;12.90;4.50;;;;;;;19.82;31.30;101405.78;1852544;77;21040;-56
2023/01/17 08:59:12;;;;;;;9.15;4.80;;;;;;;19.56;31.76;101397.66;1852653;77;21079;-56
2023/01/17 09:01:40;;;;;;;10.30;3.80;;;;;;;19.61;32.48;101394.70;1864855;76;21465;-56
2023/01/17 09:04:10;;;;;;;11.03;4.28;;;;;;;19.91;31.96;101394.47;1882443;76;21164;-58
2023/01/17 09:06:40;;;;;;;8.60;3.65;;;;;;;20.16;32.26;101394.11;1894848;75;21575;-56
2023/01/17 09:09:10;;;;;;;9.45;4.40;;;;;;;20.30;31.14;101394.50;1920552;75;21035;-57
2023/01/17 09:11:39;;;;;;;12.30;5.92;;;;;;;20.14;30.47;101386.22;1920622;75;21129;-57
2023/01/17 09:14:08;;;;;;;9.28;2.95;;;;;;;20.39;30.13;101382.67;1920496;75;21015;-57
2023/01/17 09:16:36;;;;;;;5.87;3.08;;;;;;;20.58;28.69;101370.67;1920431;75;21125;-59
2023/01/17 09:19:06;;;;;;;15.08;3.02;;;;;;;20.36;28.70;101382.91;1920453;75;21147;-56
2023/01/17 09:21:35;;;;;;;9.28;3.50;;;;;;;20.10;29.83;101378.50;1857193;75;21122;-55
2023/01/17 09:24:04;;;;;;;5.67;2.67;;;;;;;20.23;29.22;101375.34;1916045;75;21038;-60
2023/01/17 09:26:33;;;;;;;5.72;3.17;;;;;;;20.19;28.28;101375.20;1873972;75;21160;-62
2023/01/17 09:29:01;;;;;;;7.42;2.83;;;;;;;20.15;28.21;101373.70;1866193;75;21266;-56
2023/01/17 09:31:30;;;;;;;9.50;3.50;;;;;;;20.29;28.34;101381.63;1848831;75;21093;-61
2023/01/17 09:33:59;;;;;;;6.20;3.15;;;;;;;20.21;28.39;101371.93;1845637;77;21150;-60
2023/01/17 09:36:30;;;;;;;10.78;3.95;;;;;;;20.22;28.68;101377.17;1875292;74;21552;-61
2023/01/17 09:38:59;;;;;;;6.72;3.33;;;;;;;19.80;27.96;101365.80;1874015;76;21207;-63
2023/01/17 09:41:33;;;;;;;7.60;2.75;;;;;;;19.67;28.73;101365.74;1874763;76;21483;-61
2023/01/17 09:44:05;;;;;;;7.72;3.58;;;;;;;19.65;28.30;101362.32;1888181;74;21592;-48
2023/01/17 09:46:39;;;;;;;5.42;3.12;;;;;;;19.61;28.23;101368.84;1841636;76;21154;-58
2023/01/17 09:49:32;;;;;;;6.17;3.33;;;;;;;19.55;28.01;101379.06;1848128;77;21138;-57
2023/01/17 09:52:02;;;;;;;6.58;2.77;;;;;;;19.18;28.43;101359.68;1841910;76;21149;-57
2023/01/17 09:54:33;;;;;;;5.20;2.90;;;;;;;19.08;28.15;101363.41;1840432;76;21115;-55
2023/01/17 09:57:14;;;;;;;5.62;3.22;;;;;;;19.17;28.19;101353.95;1832095;76;21139;-56
2023/01/17 10:00:15;;;;;;;6.08;3.20;;;;;;;19.20;28.78;101352.42;1768822;77;21211;-58
2023/01/17 10:03:12;;;;;;;8.23;3.17;;;;;;;19.17;28.69;101347.28;1835557;77;21035;-57
2023/01/17 10:06:12;;;;;;;7.47;3.12;;;;;;;18.88;27.90;101339.34;1841243;76;21664;-57
2023/01/17 10:08:59;;;;;;;7.25;3.33;;;;;;;18.79;28.31;101337.23;1841091;76;21043;-60
2023/01/17 10:11:50;;;;;;;7.70;2.75;;;;;;;18.98;28.88;101337.41;1838360;77;21139;-56
2023/01/17 10:14:55;;;;;;;27.93;10.43;;;;;;;18.81;28.71;101338.50;1837732;77;21585;-55
2023/01/17 10:17:46;;;;;;;11.45;7.17;;;;;;;18.51;28.18;101324.32;1835471;77;21736;-54
2023/01/17 10:20:32;;;;;;;21.48;7.08;;;;;;;18.22;28.30;101326.62;1833756;77;21554;-53
2023/01/17 10:23:02;;;;;;;14.58;3.20;;;;;;;17.88;28.41;101316.71;1833344;77;21221;-56
2023/01/17 10:25:42;;;;;;;6.70;2.90;;;;;;;17.59;28.55;101319.75;1840423;76;21143;-53
2023/01/17 10:28:16;;;;;;;5.45;2.92;;;;;;;17.38;29.23;101320.55;1836777;76;21153;-55
2023/01/17 10:30:50;;;;;;;5.40;2.27;;;;;;;17.30;29.76;101318.31;1840760;76;21213;-54
2023/01/17 10:33:25;;;;;;;6.25;2.83;;;;;;;17.30;30.04;101313.87;1839446;77;21028;-55
2023/01/17 10:35:56;;;;;;;8.10;2.40;;;;;;;17.42;29.88;101314.09;1806547;78;21212;-53
2023/01/17 10:38:34;;;;;;;10.60;4.05;;;;;;;17.42;29.69;101308.77;1843566;76;21182;-54
2023/01/17 10:41:06;;;;;;;4.15;2.35;;;;;;;17.59;29.70;101308.61;1874573;75;21486;-57
2023/01/17 10:43:44;;;;;;;7.87;3.65;;;;;;;17.91;29.71;101303.21;1875521;76;21121;-56
2023/01/17 10:46:18;;;;;;;17.73;9.05;;;;;;;18.05;29.24;101308.53;1881031;74;21121;-55
2023/01/17 10:48:49;;;;;;;7.75;3.47;;;;;;;18.14;29.18;101295.97;1875643;76;22000;-54
2023/01/17 10:51:42;;;;;;;6.12;2.95;;;;;;;18.35;29.02;101288.06;1872603;76;21051;-53
2023/01/17 10:54:15;;;;;;;6.10;3.02;;;;;;;18.42;28.86;101288.06;1871807;76;21152;-56
2023/01/17 10:56:44;;;;;;;8.20;3.27;;;;;;;18.38;28.74;101286.06;1876355;74;21199;-57
2023/01/17 10:59:26;;;;;;;10.13;3.95;;;;;;;18.24;28.99;101288.73;1871112;76;21171;-57
2023/01/17 11:01:55;;;;;;;9.80;3.80;;;;;;;17.91;29.20;101286.74;1874714;76;21204;-55
2023/01/17 11:04:35;;;;;;;7.60;3.40;;;;;;;17.60;29.76;101301.51;1875661;75;21075;-56
2023/01/17 11:07:16;;;;;;;5.58;2.37;;;;;;;17.30;30.19;101299.23;1876042;74;21103;-58
2023/01/17 11:09:52;;;;;;;6.03;2.90;;;;;;;17.13;30.63;101297.55;1872744;75;21139;-55
2023/01/17 11:12:30;;;;;;;6.30;2.92;;;;;;;16.96;30.89;101300.30;1874000;76;21110;-57
2023/01/17 11:15:04;;;;;;;15.20;3.00;;;;;;;16.64;31.13;101300.77;1841751;76;21072;-55
2023/01/17 11:17:36;;;;;;;14.33;3.95;;;;;;;16.45;31.47;101304.89;1813479;77;21218;-58
2023/01/17 11:20:10;;;;;;;8.03;3.00;;;;;;;16.37;31.48;101303.52;1835994;77;21265;-55
2023/01/17 11:22:39;;;;;;;5.40;2.58;;;;;;;16.23;31.49;101297.23;1836012;77;21470;-55
2023/01/17 11:25:11;;;;;;;5.40;2.62;;;;;;;16.02;31.43;101294.78;1840968;76;21253;-56
2023/01/17 11:27:40;;;;;;;8.43;2.98;;;;;;;15.82;31.77;101301.14;1838374;76;21099;-55
2023/01/17 11:30:20;;;;;;;7.40;2.70;;;;;;;15.83;32.10;101296.23;1837260;76;21542;-58
2023/01/17 11:32:54;;;;;;;6.95;2.72;;;;;;;15.75;32.19;101293.98;1839989;76;21063;-56
2023/01/17 11:35:31;;;;;;;5.87;3.27;;;;;;;15.57;32.49;101305.52;1834622;76;21029;-56
2023/01/17 11:38:06;;;;;;;3.98;2.20;;;;;;;15.49;32.81;101307.68;1850696;77;21134;-55
2023/01/17 11:40:43;;;;;;;5.03;2.58;;;;;;;15.49;33.00;101313.84;1855988;76;21683;-59
2023/01/17 11:43:14;;;;;;;9.78;2.98;;;;;;;15.65;32.99;101311.27;1853881;76;21158;-54
2023/01/17 11:45:44;;;;;;;6.40;2.77;;;;;;;15.89;32.81;101310.98;1849893;77;21220;-53
2023/01/17 11:48:16;;;;;;;8.35;3.52;;;;;;;15.94;32.80;101308.95;1841936;77;21110;-54
2023/01/17 11:50:59;;;;;;;5.97;2.62;;;;;;;15.82;32.66;101311.31;1850127;76;21283;-52
2023/01/17 11:53:36;;;;;;;5.97;2.60;;;;;;;15.66;32.65;101318.77;1847471;77;21228;-52
2023/01/17 11:56:11;;;;;;;8.03;2.90;;;;;;;15.50;32.81;101321.36;1848704;76;21133;-52
2023/01/17 11:58:42;;;;;;;8.10;2.65;;;;;;;15.55;32.79;101321.52;1850540;76;21047;-49
2023/01/17 12:01:26;;;;;;;7.30;2.87;;;;;;;15.60;32.73;101330.55;1839394;77;21130;-48
2023/01/17 12:04:22;;;;;;;6.85;2.65;;;;;;;15.61;32.64;101330.95;1849011;77;21106;-54
2023/01/17 12:07:03;;;;;;;5.12;2.37;;;;;;;15.64;33.03;101326.83;1855940;76;21064;-53
2023/01/17 12:09:46;;;;;;;5.72;2.67;;;;;;;15.69;32.60;101334.06;1850205;76;21226;-55
2023/01/17 12:15:25;;;;;;;7.55;3.10;;;;;;;15.49;32.88;101339.05;1851377;77;21626;-52
2023/01/17 12:18:13;;;;;;;5.35;2.17;;;;;;;15.30;33.17;101328.98;1807222;77;21476;-47
2023/01/17 12:20:53;;;;;;;10.18;2.62;;;;;;;15.19;33.05;101332.16;1845631;77;21154;-53
2023/01/17 12:23:46;;;;;;;5.47;2.87;;;;;;;15.04;33.52;101331.96;1847117;77;21614;-50
2023/01/17 12:26:38;;;;;;;5.15;2.55;;;;;;;14.88;33.72;101330.97;1852759;77;21554;-46
2023/01/17 12:29:34;;;;;;;4.35;2.15;;;;;;;14.77;33.94;101330.62;1849922;76;21197;-48
2023/01/17 12:32:22;;;;;;;6.85;2.77;;;;;;;14.64;34.06;101327.25;1855663;76;21159;-48
2023/01/17 12:34:53;;;;;;;6.83;2.72;;;;;;;14.62;34.39;101330.88;1850411;76;21052;-49
2023/01/17 12:37:29;;;;;;;5.42;2.70;;;;;;;14.56;34.50;101331.99;1835143;77;21209;-51
2023/01/17 12:40:02;;;;;;;6.97;2.83;;;;;;;14.50;34.66;101333.61;1874875;74;21140;-49
2023/01/17 12:42:37;;;;;;;8.63;3.30;;;;;;;14.44;34.78;101340.05;1873302;74;21126;-49
2023/01/17 12:45:13;;;;;;;7.28;3.10;;;;;;;14.38;35.01;101334.16;1878271;74;21147;-50
2023/01/17 12:47:45;;;;;;;6.30;2.87;;;;;;;14.34;35.13;101337.89;1878510;76;21066;-47
2023/01/17 12:50:28;;;;;;;9.18;2.50;;;;;;;14.24;35.26;101336.98;1876490;76;21589;-48
2023/01/17 12:53:06;;;;;;;6.30;2.90;;;;;;;14.18;35.37;101340.36;1873232;76;21125;-49
2023/01/17 12:55:55;;;;;;;7.85;3.60;;;;;;;14.14;35.58;101336.13;1878347;76;21094;-53
2023/01/17 12:58:35;;;;;;;10.20;2.80;;;;;;;14.06;35.83;101341.30;1873326;76;21199;-49
2023/01/17 13:01:03;;;;;;;12.60;3.47;;;;;;;14.03;36.00;101339.25;1871343;76;21121;-53
2023/01/17 13:03:53;;;;;;;14.43;3.87;;;;;;;13.96;36.14;101341.32;1881574;74;21097;-56